Terminal Aerodrome Forecast
Issued by NWS

Home | Current Version | Previous Version | Graphics & Text | Print | Product List | Glossary On
Versions: 1 2 3 4 5 6 7 8 9 10 11 12 13 14 15
498
FTUS43 KICT 230522
TAFHUT
TAF
KHUT 230522Z 2306/2406 16008KT P6SM VCTS SCT100CB BKN150
     FM230700 25011KT P6SM VCSH BKN070
     FM230900 01015G24KT P6SM VCSH BKN060
     FM231600 01017G25KT P6SM SCT120
     FM240100 34007KT P6SM SCT200=

USA.gov is the U.S. government's official web portal to all federal, state and local government web resources and services.